createdAt,value
2022-09-07T00:00:42.742Z,2.95
2022-09-07T00:03:10.425Z,3.05
2022-09-07T00:05:47.896Z,3.03
2022-09-07T00:08:16.046Z,2.80
2022-09-07T00:10:53.982Z,2.75
2022-09-07T00:13:21.580Z,2.85
2022-09-07T00:15:48.825Z,2.55
2022-09-07T00:18:15.892Z,2.95
2022-09-07T00:20:42.998Z,2.72
2022-09-07T00:23:10.069Z,3.08
2022-09-07T00:25:39.446Z,2.60
2022-09-07T00:28:08.115Z,3.00
2022-09-07T00:30:41.876Z,2.88
2022-09-07T00:33:09.909Z,2.90
2022-09-07T00:35:41.330Z,3.22
2022-09-07T00:38:08.925Z,2.72
2022-09-07T00:40:36.086Z,2.70
2022-09-07T00:43:03.544Z,2.80
2022-09-07T00:45:30.811Z,2.28
2022-09-07T00:48:00.739Z,2.70
2022-09-07T00:50:33.674Z,3.00
2022-09-07T00:53:11.300Z,2.92
2022-09-07T00:55:43.052Z,2.83
2022-09-07T00:58:11.123Z,2.97
2022-09-07T01:00:41.029Z,3.00
2022-09-07T01:03:10.726Z,3.20
2022-09-07T01:05:52.753Z,2.65
2022-09-07T01:08:20.136Z,2.90
2022-09-07T01:10:47.504Z,2.95
2022-09-07T01:13:15.290Z,2.60
2022-09-07T01:16:00.948Z,3.10
2022-09-07T01:18:45.605Z,2.47
2022-09-07T01:21:24.335Z,2.70
2022-09-07T01:24:13.297Z,2.75
2022-09-07T01:26:52.335Z,3.17
2022-09-07T01:29:56.165Z,2.60
2022-09-07T01:33:02.445Z,2.47
2022-09-07T01:35:55.344Z,2.90
2022-09-07T01:38:32.096Z,2.80
2022-09-07T01:41:07.546Z,3.00
2022-09-07T01:43:43.612Z,2.67
2022-09-07T01:46:27.858Z,2.85
2022-09-07T01:49:02.751Z,2.97
2022-09-07T01:51:33.651Z,3.22
2022-09-07T01:54:11.747Z,2.92
2022-09-07T01:56:42.662Z,2.70
2022-09-07T01:59:23.152Z,3.10
2022-09-07T02:01:54.587Z,2.90
2022-09-07T02:04:53.157Z,2.95
2022-09-07T02:07:27.501Z,3.10
2022-09-07T02:09:59.634Z,2.95
2022-09-07T02:12:26.546Z,3.25
2022-09-07T02:14:59.731Z,2.80
2022-09-07T02:17:34.281Z,3.13
2022-09-07T02:20:10.359Z,2.70
2022-09-07T02:22:43.711Z,3.10
2022-09-07T02:25:16.563Z,2.85
2022-09-07T02:27:47.516Z,3.00
2022-09-07T02:30:14.838Z,3.10
2022-09-07T02:32:42.082Z,3.08
2022-09-07T02:35:09.690Z,3.63
2022-09-07T02:37:38.584Z,3.13
2022-09-07T02:40:07.011Z,2.90
2022-09-07T02:42:35.566Z,3.10
2022-09-07T02:45:06.512Z,3.08
2022-09-07T02:48:18.099Z,2.60
2022-09-07T02:51:04.565Z,3.00
2022-09-07T02:54:23.754Z,2.88
2022-09-07T02:57:02.935Z,2.70
2022-09-07T02:59:38.642Z,2.97
2022-09-07T03:02:25.872Z,2.97
2022-09-07T03:07:42.177Z,3.00
2022-09-07T03:10:13.980Z,2.33
2022-09-07T03:12:40.996Z,3.00
2022-09-07T03:15:12.139Z,3.00
2022-09-07T03:17:40.182Z,2.72
2022-09-07T03:20:07.815Z,3.08
2022-09-07T03:22:35.002Z,2.50
2022-09-07T03:25:04.373Z,3.00
2022-09-07T03:27:33.000Z,2.72
2022-09-07T03:30:00.156Z,2.88
2022-09-07T03:32:36.106Z,2.88
2022-09-07T03:35:04.548Z,2.85
2022-09-07T03:37:31.844Z,2.88
2022-09-07T03:39:58.919Z,2.88
2022-09-07T03:42:25.968Z,2.95
2022-09-07T03:44:52.938Z,2.90
2022-09-07T03:47:19.906Z,3.08
2022-09-07T03:49:46.911Z,3.10
2022-09-07T03:52:13.880Z,2.92
2022-09-07T03:54:40.947Z,2.75
2022-09-07T03:57:08.383Z,3.13
2022-09-07T03:59:35.653Z,2.72
2022-09-07T04:02:02.712Z,2.95
2022-09-07T04:04:30.627Z,2.90
2022-09-07T04:06:57.828Z,2.90
2022-09-07T04:09:25.037Z,3.13
2022-09-07T04:11:52.025Z,3.40
2022-09-07T04:14:19.114Z,3.35
2022-09-07T04:16:46.192Z,2.97
2022-09-07T04:19:13.227Z,3.17
2022-09-07T04:21:40.370Z,3.28
2022-09-07T04:24:07.397Z,2.97
2022-09-07T04:26:35.751Z,2.92
2022-09-07T04:29:04.190Z,3.03
2022-09-07T04:31:32.936Z,2.60
2022-09-07T04:34:00.031Z,3.22
2022-09-07T04:36:28.712Z,3.28
2022-09-07T04:39:05.837Z,3.70
2022-09-07T04:41:34.402Z,3.15
2022-09-07T04:44:03.182Z,3.08
2022-09-07T04:46:35.810Z,3.00
2022-09-07T04:49:08.731Z,2.92
2022-09-07T04:51:36.990Z,3.17
2022-09-07T04:54:04.997Z,2.97
2022-09-07T04:56:33.118Z,2.80
2022-09-07T04:59:02.338Z,2.70
2022-09-07T05:01:29.978Z,2.92
2022-09-07T05:03:59.097Z,3.00
2022-09-07T05:06:26.098Z,3.42
2022-09-07T05:08:54.228Z,3.08
2022-09-07T05:11:28.686Z,2.80
2022-09-07T05:14:02.221Z,2.72
2022-09-07T05:16:30.750Z,3.28
2022-09-07T05:19:00.005Z,3.40
2022-09-07T05:21:33.035Z,3.03
2022-09-07T05:24:01.158Z,2.92
2022-09-07T05:26:30.097Z,2.83
2022-09-07T05:31:46.323Z,2.80
2022-09-07T05:36:56.125Z,2.90
2022-09-07T05:39:23.399Z,2.70
2022-09-07T05:41:50.356Z,3.00
2022-09-07T05:47:04.291Z,3.28
2022-09-07T05:49:32.350Z,3.20
2022-09-07T05:51:59.304Z,3.20
2022-09-07T05:54:26.356Z,2.80
2022-09-07T05:56:53.278Z,3.13
2022-09-07T05:59:20.251Z,3.65
2022-09-07T06:01:47.362Z,3.17
2022-09-07T06:04:14.414Z,3.42
2022-09-07T06:06:41.425Z,3.63
2022-09-07T06:09:11.438Z,3.28
2022-09-07T06:11:38.724Z,2.72
2022-09-07T06:14:05.635Z,3.00
2022-09-07T06:16:35.170Z,3.10
2022-09-07T06:19:07.146Z,3.33
2022-09-07T06:21:38.589Z,2.65
2022-09-07T06:24:06.672Z,2.60
2022-09-07T06:26:33.865Z,2.92
2022-09-07T06:29:02.808Z,3.15
2022-09-07T06:31:30.108Z,3.38
2022-09-07T06:33:57.507Z,3.10
2022-09-07T06:36:29.448Z,3.38
2022-09-07T06:38:59.153Z,2.70
2022-09-07T06:44:20.949Z,2.70
2022-09-07T06:47:03.948Z,2.67
2022-09-07T06:49:31.620Z,2.40
2022-09-07T06:51:58.647Z,2.40
2022-09-07T06:57:12.572Z,2.58
2022-09-07T06:59:39.597Z,2.65
2022-09-07T07:02:07.511Z,2.50
2022-09-07T07:04:40.279Z,2.42
2022-09-07T07:07:14.302Z,2.72
2022-09-07T07:09:42.259Z,2.28
2022-09-07T07:12:10.669Z,2.40
2022-09-07T07:14:40.962Z,2.42
2022-09-07T07:17:11.217Z,2.00
2022-09-07T07:19:38.445Z,2.88
2022-09-07T07:24:52.591Z,2.13
2022-09-07T07:27:21.612Z,2.03
2022-09-07T07:29:48.693Z,2.22
2022-09-07T07:32:16.033Z,2.10
2022-09-07T07:34:42.938Z,2.20
2022-09-07T07:37:09.850Z,2.00
2022-09-07T07:42:25.954Z,2.10
2022-09-07T07:47:39.946Z,2.08
2022-09-07T07:55:43.972Z,2.08
2022-09-07T07:58:11.327Z,2.15
2022-09-07T08:00:53.846Z,2.55
2022-09-07T08:03:23.618Z,2.13
2022-09-07T08:05:50.843Z,2.45
2022-09-07T08:08:19.796Z,2.05
2022-09-07T08:10:47.983Z,2.40
2022-09-07T08:13:16.285Z,2.30
2022-09-07T08:15:46.496Z,2.22
2022-09-07T08:18:14.849Z,2.30
2022-09-07T08:20:42.152Z,2.75
2022-09-07T08:23:09.253Z,1.90
2022-09-07T08:25:36.635Z,2.30
2022-09-07T08:28:04.224Z,2.65
2022-09-07T08:30:31.360Z,1.90
2022-09-07T08:32:58.439Z,2.90
2022-09-07T08:35:25.370Z,2.20
2022-09-07T08:37:52.294Z,1.80
2022-09-07T08:40:20.483Z,2.00
2022-09-07T08:43:10.720Z,2.50
2022-09-07T08:45:46.480Z,3.28
2022-09-07T08:48:18.922Z,3.65
2022-09-07T08:50:56.365Z,2.60
2022-09-07T08:53:25.684Z,1.65
2022-09-07T08:56:09.666Z,1.33
2022-09-07T08:58:49.778Z,1.48
2022-09-07T09:01:35.677Z,1.73
2022-09-07T09:04:19.588Z,1.75
2022-09-07T09:07:21.594Z,1.77
2022-09-07T09:10:03.771Z,2.05
2022-09-07T09:12:37.791Z,1.95
2022-09-07T09:15:23.602Z,2.00
2022-09-07T09:18:05.194Z,2.50
2022-09-07T09:20:41.037Z,2.60
2022-09-07T09:23:14.256Z,2.05
2022-09-07T09:25:50.736Z,1.65
2022-09-07T09:28:17.908Z,2.30
2022-09-07T09:30:44.980Z,1.98
2022-09-07T09:33:19.198Z,2.80
2022-09-07T09:35:51.514Z,2.30
2022-09-07T09:38:39.619Z,1.90
2022-09-07T09:41:09.572Z,1.80
2022-09-07T09:43:48.094Z,1.90
2022-09-07T09:46:23.057Z,1.70
2022-09-07T09:49:18.558Z,1.95
2022-09-07T09:54:43.550Z,1.80
2022-09-07T09:57:39.840Z,2.67
2022-09-07T10:00:11.504Z,1.80
2022-09-07T10:05:36.278Z,1.83
2022-09-07T10:08:16.757Z,1.70
2022-09-07T10:10:56.231Z,2.25
2022-09-07T10:13:36.576Z,1.80
2022-09-07T10:16:06.314Z,1.85
2022-09-07T10:18:38.708Z,1.77
2022-09-07T10:21:14.683Z,1.92
2022-09-07T10:23:41.977Z,2.00
2022-09-07T10:26:22.062Z,1.80
2022-09-07T10:31:45.320Z,2.00
2022-09-07T10:39:45.896Z,1.77
2022-09-07T10:42:35.761Z,2.10
2022-09-07T10:45:14.847Z,2.20
2022-09-07T10:47:48.031Z,2.60
2022-09-07T10:50:28.662Z,3.20
2022-09-07T10:53:46.750Z,3.67
2022-09-07T10:56:30.839Z,3.30
2022-09-07T10:59:18.970Z,2.25
2022-09-07T11:02:27.251Z,2.03
2022-09-07T11:05:06.329Z,2.13
2022-09-07T11:07:51.740Z,1.60
2022-09-07T11:10:33.685Z,1.70
2022-09-07T11:13:05.473Z,1.77
2022-09-07T11:15:44.937Z,2.00
2022-09-07T11:18:19.981Z,1.92
2022-09-07T11:20:55.410Z,2.20
2022-09-07T11:23:43.756Z,2.60
2022-09-07T11:26:17.781Z,2.85
2022-09-07T11:29:29.301Z,2.60
2022-09-07T11:31:41.827Z,1.95
2022-09-07T11:34:26.253Z,1.83
2022-09-07T11:37:07.896Z,2.30
2022-09-07T11:39:47.472Z,1.80
2022-09-07T11:42:44.266Z,1.77
2022-09-07T11:45:27.892Z,1.60
2022-09-07T11:48:09.646Z,1.88
2022-09-07T11:50:46.372Z,1.90
2022-09-07T11:53:22.229Z,1.80
2022-09-07T11:55:55.784Z,2.78
2022-09-07T11:58:37.729Z,2.10
2022-09-07T12:01:38.298Z,2.00
2022-09-07T12:04:15.455Z,2.33
2022-09-07T12:07:24.148Z,2.20
2022-09-07T12:09:51.095Z,2.15
2022-09-07T12:12:56.765Z,2.88
2022-09-07T12:15:29.465Z,2.40
2022-09-07T12:17:59.402Z,2.13
2022-09-07T12:20:39.297Z,2.38
2022-09-07T12:23:25.536Z,3.00
2022-09-07T12:25:53.328Z,2.40
2022-09-07T12:28:26.190Z,3.17
2022-09-07T12:30:53.281Z,3.40
2022-09-07T12:33:26.957Z,3.05
2022-09-07T12:35:58.041Z,2.60
2022-09-07T12:38:31.201Z,2.63
2022-09-07T12:41:05.347Z,3.33
2022-09-07T12:43:34.059Z,3.30
2022-09-07T12:46:02.054Z,3.05
2022-09-07T12:48:43.676Z,2.85
2022-09-07T12:54:27.407Z,3.00
2022-09-07T13:00:07.536Z,3.00
2022-09-07T13:02:37.449Z,3.15
2022-09-07T13:05:10.569Z,2.95
2022-09-07T13:07:47.437Z,3.47
2022-09-07T13:10:39.856Z,3.03
2022-09-07T13:13:15.826Z,3.10
2022-09-07T13:15:46.269Z,3.10
2022-09-07T13:18:28.975Z,3.53
2022-09-07T13:21:08.134Z,3.70
2022-09-07T13:23:43.315Z,3.75
2022-09-07T13:26:13.758Z,3.90
2022-09-07T13:28:55.997Z,6.97
2022-09-07T13:31:45.336Z,6.50
2022-09-07T13:34:34.351Z,5.57
2022-09-07T13:37:03.252Z,4.60
2022-09-07T13:39:39.634Z,4.85
2022-09-07T13:42:07.485Z,4.05
2022-09-07T13:44:34.803Z,4.28
2022-09-07T13:47:08.925Z,3.97
2022-09-07T13:50:17.780Z,3.75
2022-09-07T13:53:03.313Z,3.40
2022-09-07T13:56:07.542Z,3.45
2022-09-07T13:58:47.965Z,3.10
2022-09-07T14:01:28.511Z,2.88
2022-09-07T14:04:07.681Z,2.75
2022-09-07T14:06:36.579Z,2.90
2022-09-07T14:09:09.471Z,3.00
2022-09-07T14:11:36.507Z,2.75
2022-09-07T14:14:36.498Z,2.40
2022-09-07T14:17:07.360Z,3.00
2022-09-07T14:19:48.137Z,2.88
2022-09-07T14:22:18.124Z,2.80
2022-09-07T14:25:03.211Z,2.80
2022-09-07T14:27:41.137Z,2.42
2022-09-07T14:30:26.624Z,2.20
2022-09-07T14:32:55.238Z,2.08
2022-09-07T14:35:25.584Z,2.35
2022-09-07T14:37:53.630Z,2.17
2022-09-07T14:40:23.110Z,2.53
2022-09-07T14:42:51.870Z,2.00
2022-09-07T14:45:26.460Z,2.20
2022-09-07T14:47:55.491Z,1.90
2022-09-07T14:50:35.011Z,2.30
2022-09-07T14:56:08.224Z,2.10
2022-09-07T14:58:35.577Z,2.22
2022-09-07T15:04:18.237Z,2.22
2022-09-07T15:07:02.655Z,1.77
2022-09-07T15:09:39.068Z,1.67
2022-09-07T15:12:27.279Z,1.90
2022-09-07T15:15:26.067Z,1.90
2022-09-07T15:18:03.083Z,1.85
2022-09-07T15:20:44.429Z,2.30
2022-09-07T15:23:14.014Z,1.90
2022-09-07T15:25:45.378Z,1.70
2022-09-07T15:34:16.047Z,2.38
2022-09-07T15:36:48.771Z,2.17
2022-09-07T15:39:21.872Z,1.88
2022-09-07T15:41:49.207Z,1.75
2022-09-07T15:44:20.402Z,2.28
2022-09-07T15:49:37.194Z,1.80
2022-09-07T15:52:06.501Z,2.20
2022-09-07T15:54:35.011Z,1.63
2022-09-07T15:59:50.947Z,2.10
2022-09-07T16:05:07.130Z,2.00
2022-09-07T16:10:21.301Z,2.30
2022-09-07T16:13:10.457Z,3.00
2022-09-07T16:15:35.604Z,2.42
2022-09-07T16:18:02.885Z,2.72
2022-09-07T16:20:32.953Z,2.63
2022-09-07T16:23:16.142Z,2.45
2022-09-07T16:25:56.383Z,2.38
2022-09-07T16:28:23.389Z,1.95
2022-09-07T16:30:50.387Z,2.40
2022-09-07T16:33:17.418Z,2.53
2022-09-07T16:35:44.472Z,2.30
2022-09-07T16:40:59.933Z,2.50
2022-09-07T16:43:27.588Z,2.42
2022-09-07T16:46:05.255Z,2.60
2022-09-07T16:48:34.779Z,2.33
2022-09-07T16:51:03.452Z,2.10
2022-09-07T16:53:33.025Z,2.20
2022-09-07T16:56:05.495Z,2.10
2022-09-07T16:58:36.780Z,2.28
2022-09-07T17:01:06.694Z,2.50
2022-09-07T17:03:34.783Z,2.30
2022-09-07T17:06:03.745Z,2.28
2022-09-07T17:08:30.781Z,2.10
2022-09-07T17:11:02.690Z,2.72
2022-09-07T17:13:32.080Z,3.08
2022-09-07T17:16:13.079Z,2.45
2022-09-07T17:21:33.897Z,2.78
2022-09-07T17:24:04.187Z,2.55
2022-09-07T17:26:31.615Z,2.13
2022-09-07T17:29:00.790Z,1.90
2022-09-07T17:34:23.112Z,2.10
2022-09-07T17:36:51.301Z,2.15
2022-09-07T17:39:19.563Z,1.80
2022-09-07T17:41:48.649Z,1.95
2022-09-07T17:44:16.057Z,1.90
2022-09-07T17:46:43.181Z,2.10
2022-09-07T17:49:12.478Z,2.03
2022-09-07T17:51:39.982Z,2.10
2022-09-07T17:54:11.569Z,2.55
2022-09-07T17:56:40.265Z,2.30
2022-09-07T18:01:54.855Z,2.30
2022-09-07T18:04:22.308Z,2.50
2022-09-07T18:06:49.359Z,2.75
2022-09-07T18:09:16.976Z,2.60
2022-09-07T18:11:45.731Z,2.83
2022-09-07T18:14:14.791Z,2.80
2022-09-07T18:16:43.458Z,3.00
2022-09-07T18:19:11.579Z,2.95
2022-09-07T18:21:42.200Z,3.17
2022-09-07T18:24:22.327Z,3.40
2022-09-07T18:26:52.333Z,2.58
2022-09-07T18:29:32.316Z,2.63
2022-09-07T18:32:08.715Z,2.90
2022-09-07T18:34:38.062Z,3.00
2022-09-07T18:37:06.148Z,3.05
2022-09-07T18:39:35.436Z,3.33
2022-09-07T18:42:02.779Z,3.20
2022-09-07T18:47:27.658Z,3.22
2022-09-07T18:49:56.268Z,3.80
2022-09-07T18:55:10.607Z,3.17
2022-09-07T18:57:38.354Z,3.38
2022-09-07T19:00:08.037Z,3.60
2022-09-07T19:02:36.027Z,3.20
2022-09-07T19:07:50.501Z,3.53
2022-09-07T19:10:17.893Z,3.90
2022-09-07T19:12:46.141Z,3.70
2022-09-07T19:15:14.250Z,3.30
2022-09-07T19:17:41.186Z,3.80
2022-09-07T19:20:08.720Z,3.08
2022-09-07T19:22:35.870Z,3.83
2022-09-07T19:25:02.783Z,3.58
2022-09-07T19:27:33.005Z,3.38
2022-09-07T19:30:00.171Z,3.30
2022-09-07T19:32:27.347Z,3.28
2022-09-07T19:34:55.531Z,2.70
2022-09-07T19:37:26.070Z,3.55
2022-09-07T19:39:56.854Z,2.85
2022-09-07T19:42:25.162Z,2.60
2022-09-07T19:44:52.891Z,3.00
2022-09-07T19:47:21.107Z,2.55
2022-09-07T19:49:48.092Z,2.63
2022-09-07T19:52:15.527Z,3.63
2022-09-07T19:54:42.648Z,3.30
2022-09-07T19:57:09.520Z,3.13
2022-09-07T19:59:36.452Z,3.28
2022-09-07T20:02:03.442Z,3.03
2022-09-07T20:04:30.695Z,3.22
2022-09-07T20:06:57.737Z,3.25
2022-09-07T20:09:24.931Z,3.50
2022-09-07T20:11:51.980Z,3.60
2022-09-07T20:14:19.315Z,3.83
2022-09-07T20:16:46.468Z,3.33
2022-09-07T20:19:15.046Z,3.67
2022-09-07T20:21:43.167Z,3.55
2022-09-07T20:24:14.723Z,3.38
2022-09-07T20:26:42.083Z,3.08
2022-09-07T20:29:27.743Z,3.15
2022-09-07T20:31:57.566Z,3.15
2022-09-07T20:34:24.830Z,2.78
2022-09-07T20:36:52.649Z,3.33
2022-09-07T20:39:20.478Z,3.25
2022-09-07T20:41:47.552Z,3.30
2022-09-07T20:44:14.846Z,3.70
2022-09-07T20:46:41.998Z,3.33
2022-09-07T20:49:09.672Z,3.53
2022-09-07T20:51:36.640Z,3.97
2022-09-07T20:54:03.977Z,3.80
2022-09-07T20:56:31.186Z,3.22
2022-09-07T20:59:00.380Z,3.53
2022-09-07T21:01:28.656Z,3.22
2022-09-07T21:03:58.140Z,4.05
2022-09-07T21:06:26.604Z,3.50
2022-09-07T21:08:54.765Z,3.40
2022-09-07T21:11:25.073Z,3.47
2022-09-07T21:13:57.200Z,4.28
2022-09-07T21:16:24.852Z,3.60
2022-09-07T21:18:55.208Z,3.40
2022-09-07T21:21:23.855Z,3.42
2022-09-07T21:23:59.552Z,3.40
2022-09-07T21:26:31.039Z,3.50
2022-09-07T21:29:03.915Z,2.97
2022-09-07T21:31:33.444Z,3.47
2022-09-07T21:34:02.416Z,3.40
2022-09-07T21:36:30.296Z,3.10
2022-09-07T21:38:57.434Z,3.60
2022-09-07T21:41:25.200Z,3.50
2022-09-07T21:44:01.353Z,3.88
2022-09-07T21:46:30.747Z,3.58
2022-09-07T21:48:58.572Z,3.30
2022-09-07T21:51:26.952Z,3.40
2022-09-07T21:53:55.617Z,3.67
2022-09-07T21:56:23.466Z,3.67
2022-09-07T21:58:55.533Z,3.65
2022-09-07T22:01:23.770Z,4.05
2022-09-07T22:03:59.622Z,3.78
2022-09-07T22:06:30.213Z,3.95
2022-09-07T22:08:57.271Z,3.80
2022-09-07T22:11:25.970Z,3.95
2022-09-07T22:13:57.643Z,4.35
2022-09-07T22:16:25.076Z,3.60
2022-09-07T22:18:52.651Z,4.07
2022-09-07T22:21:22.385Z,4.07
2022-09-07T22:23:51.791Z,4.00
2022-09-07T22:26:20.625Z,4.32
2022-09-07T22:28:47.834Z,4.32
2022-09-07T22:31:20.793Z,4.30
2022-09-07T22:33:49.717Z,4.00
2022-09-07T22:36:22.909Z,4.25
2022-09-07T22:38:53.171Z,4.43
2022-09-07T22:41:26.098Z,4.72
2022-09-07T22:43:53.385Z,4.93
2022-09-07T22:46:22.931Z,4.35
2022-09-07T22:48:50.649Z,4.97
2022-09-07T22:51:17.718Z,4.70
2022-09-07T22:53:44.707Z,5.32
2022-09-07T22:56:17.404Z,4.65
2022-09-07T22:58:50.394Z,4.55
2022-09-07T23:01:18.253Z,4.28
2022-09-07T23:03:45.924Z,4.90
2022-09-07T23:06:23.851Z,4.90
2022-09-07T23:08:52.657Z,4.60
2022-09-07T23:11:20.832Z,5.00
2022-09-07T23:13:55.692Z,4.20
2022-09-07T23:16:23.419Z,4.28
2022-09-07T23:18:50.607Z,4.32
2022-09-07T23:21:18.272Z,4.20
2022-09-07T23:23:50.793Z,4.25
2022-09-07T23:26:18.131Z,4.10
2022-09-07T23:28:45.185Z,3.95
2022-09-07T23:31:12.292Z,4.20
2022-09-07T23:33:39.570Z,3.83
2022-09-07T23:36:07.349Z,3.47
2022-09-07T23:38:34.514Z,3.92
2022-09-07T23:41:01.977Z,4.20
2022-09-07T23:43:31.458Z,4.28
2022-09-07T23:46:00.121Z,4.63
2022-09-07T23:48:27.853Z,4.18
2022-09-07T23:50:55.018Z,4.13
2022-09-07T23:53:22.504Z,4.68
2022-09-07T23:55:53.263Z,4.57
2022-09-07T23:58:21.826Z,4.50
